Latest Coastal Weather Observations for Karratha

IDW60701

Issued at 6:23 am WST Friday 23 February 2018 (issued every 10 minutes, with the page automatically refreshed every 10 minutes)

About coastal observations | Map of coastal stations | Coastal observations for WA | Marine services | Other Formats
Station Details ID: 004083 Name: KARRATHA AERO Lat: -20.71 Lon: 116.77 Height: 5.3 m
Data from the previous 72 hours. | See also: Recent months at Karratha
Date/Time
WST
Temp
°C
Wind Pressure Rain since
9am
mm
Weather Cloud Vis
km
Sea
Height
m
Swell
Dir  Spd
kts
Gust
kts
hPa Trend Height
m
Period
s
Dir
23/06:00am 26.7 WSW 12 15 1007.2 - 0.0 - Mostly clear 10 - - - -
23/05:30am 26.9 WSW 12 16 1007.0 - 0.0 - - 10 - - - -
23/05:00am 27.1 WSW 12 14 1007.0 - 0.0 - Partly cloudy 10 - - - -
23/04:30am 27.4 WSW 13 17 1006.9 - 0.0 - Partly cloudy 10 - - - -
23/04:00am 27.5 WSW 14 17 1006.7 - 0.0 - Partly cloudy 10 - - - -
23/03:30am 27.4 WSW 13 16 1006.5 - 0.0 - Partly cloudy 10 - - - -
23/03:00am 27.3 WSW 13 16 1006.3 - 0.0 - Partly cloudy 10 - - - -
23/02:30am 27.4 WSW 13 16 1006.3 - 0.0 - - 10 - - - -
23/02:00am 27.5 WSW 13 16 1006.2 - 0.0 - - 10 - - - -
23/01:30am 27.7 WSW 13 17 1006.5 - 0.0 - Partly cloudy 10 - - - -
23/01:00am 27.6 WSW 15 18 1006.6 - 0.0 - Partly cloudy 10 - - - -
23/12:30am 27.9 WSW 14 18 1006.8 - 0.0 - Partly cloudy 10 - - - -
23/12:00am 27.8 WSW 16 19 1006.8 - 0.0 - Mostly clear 10 - - - -
 
Date/Time
WST
Temp
°C
Wind Pressure Rain since
9am
mm
Weather Cloud Vis
km
Sea
Height
m
Swell
Dir  Spd
kts
Gust
kts
hPa Trend Height
m
Period
s
Dir
22/11:30pm 27.9 WSW 15 19 1006.8 - 0.0 - Partly cloudy 10 - - - -
22/11:00pm 28.1 WSW 14 17 1007.0 - 0.0 - Partly cloudy 10 - - - -
22/10:30pm 28.2 WSW 13 16 1006.8 - 0.0 - - 10 - - - -
22/10:00pm 28.4 W 15 17 1006.9 - 0.0 - - 10 - - - -
22/09:30pm 28.6 W 15 19 1006.8 - 0.0 - - 10 - - - -
22/09:00pm 28.7 W 16 19 1006.6 - 0.0 - Mostly clear 10 - - - -
22/08:30pm 28.7 W 16 19 1006.3 - 0.0 - - 10 - - - -
22/08:00pm 28.8 W 17 19 1006.1 - 0.0 - - 10 - - - -
22/07:30pm 28.9 W 17 20 1005.9 - 0.0 - - 10 - - - -
22/07:00pm 29.0 W 18 21 1005.7 - 0.0 - - 10 - - - -
22/06:30pm 29.5 W 15 19 1005.4 - 0.0 - - 10 - - - -
22/06:00pm 29.8 W 17 19 1005.1 - 0.0 - - 10 - - - -
22/05:30pm 30.2 W 17 21 1004.7 - 0.0 - - 10 - - - -
22/05:00pm 30.7 W 18 21 1004.5 - 0.0 - - 10 - - - -
22/04:30pm 31.3 W 18 21 1004.3 - 0.0 - - 10 - - - -
22/04:00pm 31.7 W 19 22 1004.4 - 0.0 - - 10 - - - -
22/03:30pm 32.1 W 18 22 1004.4 - 0.0 - - 10 - - - -
22/03:00pm 32.4 W 17 21 1004.6 - 0.0 - - 10 - - - -
22/02:30pm 32.5 W 17 19 1004.8 - 0.0 - - 10 - - - -
22/02:00pm 32.4 W 17 20 1005.0 - 0.0 - - 10 - - - -
22/01:30pm 32.5 W 17 20 1005.2 - 0.0 - - 10 - - - -
22/01:00pm 32.6 W 17 19 1005.3 - 0.0 - - 10 - - - -
22/12:30pm 32.6 W 15 18 1005.7 - 0.0 - - 10 - - - -
22/12:00pm 32.8 W 12 16 1006.1 - 0.0 - - 10 - - - -
22/11:30am 31.8 WNW 13 16 1006.4 - 0.0 - Partly cloudy 10 - - - -
22/11:00am 31.1 W 14 17 1006.6 - 0.0 - - 10 - - - -
22/10:30am 30.6 W 14 16 1006.9 - 0.0 - - 10 - - - -
22/10:00am 30.1 W 14 18 1007.0 - 0.0 - - 10 - - - -
22/09:30am 29.7 W 12 16 1007.1 - 0.0 - Partly cloudy 10 - - - -
22/09:00am 28.3 W 13 15 1007.0 - 0.0 - Mostly cloudy 10 - - - -
22/08:30am 27.7 W 12 15 1007.0 - 0.0 - Partly cloudy 10 - - - -
22/08:00am 27.9 W 11 14 1006.7 - 0.0 - Partly cloudy 10 - - - -
22/07:30am 27.5 W 10 13 1006.4 - 0.0 - Partly cloudy 10 - - - -
22/07:00am 27.3 W 11 13 1006.1 - 0.0 - Cloudy 10 - - - -
22/06:30am 27.3 WSW 11 14 1006.0 - 0.0 - Cloudy 10 - - - -
22/06:00am 27.4 WSW 11 13 1005.7 - 0.0 - Cloudy 10 - - - -
22/05:30am 27.4 WNW 12 15 1005.4 - 0.0 - Partly cloudy 10 - - - -
22/05:00am 27.5 WNW 10 14 1005.3 - 0.0 - Partly cloudy 10 - - - -
22/04:30am 27.6 WNW 10 14 1005.2 - 0.0 - Partly cloudy 10 - - - -
22/04:00am 27.7 W 11 13 1005.0 - 0.0 - Partly cloudy 10 - - - -
22/03:30am 27.5 WSW 12 15 1004.8 - 0.0 - Partly cloudy 10 - - - -
22/03:00am 27.4 WSW 10 13 1004.6 - 0.0 - Mostly clear 10 - - - -
22/02:30am 27.4 WSW 12 14 1004.4 - 0.0 - - 10 - - - -
22/02:00am 27.4 WSW 11 16 1004.6 - 0.0 - Partly cloudy 10 - - - -
22/01:30am 27.6 WSW 14 18 1004.6 - 0.0 - - 10 - - - -
22/01:00am 27.6 WSW 16 19 1004.8 - 0.0 - - 10 - - - -
22/12:30am 27.7 W 17 20 1005.0 - 0.0 - - 10 - - - -
22/12:00am 27.7 W 17 19 1005.3 - 0.0 - Cloudy 10 - - - -
 
Date/Time
WST
Temp
°C
Wind Pressure Rain since
9am
mm
Weather Cloud Vis
km
Sea
Height
m
Swell
Dir  Spd
kts
Gust
kts
hPa Trend Height
m
Period
s
Dir
21/11:30pm 27.9 WSW 15 18 1005.8 - 0.0 - Partly cloudy 10 - - - -
21/11:00pm 28.0 WSW 15 18 1005.8 - 0.0 - Partly cloudy 10 - - - -
21/10:30pm 28.0 W 16 19 1005.3 - 0.0 - - 10 - - - -
21/10:00pm 28.0 W 16 20 1005.2 - 0.0 - Partly cloudy 10 - - - -
21/09:30pm 28.2 WSW 15 20 1005.4 - 0.0 - Partly cloudy 10 - - - -
21/09:00pm 28.1 W 16 20 1005.0 - 0.0 - Cloudy 10 - - - -
21/08:30pm 28.3 W 16 21 1004.9 - 0.0 - Partly cloudy 10 - - - -
21/08:00pm 28.0 WNW 16 20 1004.0 - 0.0 - - 10 - - - -
21/07:30pm 28.2 WNW 15 19 1003.7 - 0.0 - Partly cloudy 10 - - - -
21/07:00pm 28.4 W 14 18 1003.6 - 0.0 - Partly cloudy 10 - - - -
21/06:30pm 28.8 WNW 15 18 1003.5 - 0.0 - Partly cloudy 10 - - - -
21/06:00pm 29.2 WNW 15 18 1003.3 - 0.0 - - 10 - - - -
21/05:30pm 30.0 WNW 15 19 1003.0 - 0.0 - - 10 - - - -
21/05:00pm 30.4 WNW 16 20 1002.6 - 0.0 - - 10 - - - -
21/04:30pm 30.8 WNW 16 21 1002.4 - 0.0 - - 10 - - - -
21/04:00pm 31.8 WNW 14 19 1002.3 - 0.0 - - 10 - - - -
21/03:30pm 31.4 WNW 13 17 1002.4 - 0.0 - - 10 - - - -
21/03:00pm 31.8 WNW 13 18 1002.3 - 0.0 - Mostly clear 10 - - - -
21/02:30pm 31.8 WNW 12 17 1002.5 - 0.0 - - 10 - - - -
21/02:00pm 31.2 WNW 11 16 1002.8 - 0.0 - - 10 - - - -
21/01:30pm 32.0 WNW 12 16 1003.0 - 0.0 - - 10 - - - -
21/01:00pm 31.0 WNW 13 16 1003.2 - 0.0 - Partly cloudy 10 - - - -
21/12:30pm 30.7 NW 13 17 1003.3 - 0.0 - Partly cloudy 10 - - - -
21/12:00pm 30.3 WNW 13 15 1003.5 - 0.0 - Mostly cloudy 10 - - - -
21/11:30am 29.4 NW 13 17 1003.7 - 0.0 - Cloudy 10 - - - -
21/11:00am 28.9 WNW 12 16 1004.0 - 0.0 - Partly cloudy 9 - - - -
21/10:30am 28.3 NW 12 15 1004.1 - 0.0 - Partly cloudy 10 - - - -
21/10:00am 28.5 WNW 10 13 1004.3 - 0.0 - Partly cloudy 10 - - - -
21/09:30am 28.5 WNW 10 12 1004.4 - 0.0 - Cloudy 10 - - - -
21/09:00am 28.5 W 10 12 1004.2 - 0.0 - Mostly cloudy 10 - - - -
21/08:47am 28.4 W 11 13 1004.0 - 0.0 - Partly cloudy 10 - - - -
21/08:30am 28.2 W 11 16 1003.9 - 0.0 - Partly cloudy 10 - - - -
21/08:21am 28.0 WNW 12 15 1003.8 - 0.0 - Cloudy 10 - - - -
21/08:00am 28.1 WNW 11 15 1003.7 - 0.0 - Partly cloudy 10 - - - -
21/07:30am 28.1 WNW 11 15 1003.5 - 0.0 - Partly cloudy 10 - - - -
21/07:00am 27.5 WNW 13 16 1003.4 - 0.0 - Partly cloudy 10 - - - -
21/06:30am 27.3 WNW 13 16 1003.0 - 0.0 - Partly cloudy 10 - - - -
21/06:00am 27.2 WNW 13 16 1002.7 - 0.0 - Mostly clear 10 - - - -
21/05:30am 27.3 WNW 14 18 1002.6 - 0.0 - - 10 - - - -
21/05:00am 27.4 WNW 13 19 1002.5 - 0.0 - Partly cloudy 10 - - - -
21/04:30am 27.3 WNW 13 18 1002.2 - 0.0 - Partly cloudy 10 - - - -
21/04:00am 27.4 WNW 14 17 1002.3 - 0.0 - Partly cloudy 9 - - - -
21/03:30am 27.5 WNW 12 16 1002.3 - 0.0 - Partly cloudy 9 - - - -
21/03:00am 27.5 NW 12 15 1002.3 - 0.0 - Mostly clear 9 - - - -
21/02:30am 27.6 NW 12 16 1002.6 - 0.0 - Partly cloudy 9 - - - -
21/02:00am 27.6 NW 11 16 1002.7 - 0.0 - Partly cloudy 9 - - - -
21/01:30am 27.6 NW 13 15 1002.7 - 0.0 - Partly cloudy 9 - - - -
21/01:00am 27.6 NW 13 16 1002.7 - 0.0 - Partly cloudy 9 - - - -
21/12:30am 27.7 WNW 12 17 1002.9 - 0.0 - Partly cloudy 9 - - - -
21/12:00am 27.7 WNW 13 17 1003.2 - 0.0 - Cloudy 9 - - - -
 
Date/Time
WST
Temp
°C
Wind Pressure Rain since
9am
mm
Weather Cloud Vis
km
Sea
Height
m
Swell
Dir  Spd
kts
Gust
kts
hPa Trend Height
m
Period
s
Dir
20/11:30pm 27.7 WNW 13 16 1003.5 - 0.0 - Partly cloudy 10 - - - -
20/11:00pm 27.8 WNW 12 17 1003.6 - 0.0 - Partly cloudy 10 - - - -
20/10:30pm 27.8 WNW 12 16 1003.8 - 0.0 - Partly cloudy 10 - - - -
20/10:00pm 27.9 WNW 12 15 1003.6 - 0.0 - - 10 - - - -
20/09:30pm 28.0 WNW 13 16 1003.4 - 0.0 - - 10 - - - -
20/09:00pm 27.9 WNW 12 16 1003.6 - 0.0 - Mostly clear 10 - - - -
20/08:30pm 27.9 WNW 13 17 1003.2 - 0.0 - - 10 - - - -
20/08:00pm 27.9 WNW 11 16 1003.1 - 0.0 - Partly cloudy 10 - - - -
20/07:30pm 28.0 WNW 13 17 1002.8 - 0.0 - - 10 - - - -
20/07:00pm 28.1 WNW 13 17 1002.4 - 0.0 - - 10 - - - -
20/06:30pm 28.4 NW 15 19 1002.1 - 0.0 - - 10 - - - -
20/06:00pm 28.8 NW 15 19 1001.8 - 0.0 - - 10 - - - -
20/05:30pm 29.1 WNW 16 20 1001.5 - 0.0 - - 10 - - - -
20/05:00pm 29.6 WNW 16 20 1001.7 - 0.0 - - 10 - - - -
20/04:30pm 29.6 WNW 16 21 1001.7 - 0.0 - - 10 - - - -
20/04:00pm 30.3 WNW 15 19 1001.8 - 0.0 - - 10 - - - -
20/03:30pm 30.7 WNW 15 19 1001.9 - 0.0 - - 10 - - - -
20/03:00pm 30.9 WNW 16 20 1002.0 - 0.0 - Mostly clear 10 - - - -
20/02:30pm 30.9 WNW 16 21 1002.4 - 0.0 - - 10 - - - -
20/02:00pm 30.7 WNW 17 23 1002.4 - 0.0 - - 10 - - - -
20/01:30pm 31.0 WNW 15 19 1002.7 - 0.0 - - 10 - - - -
20/01:00pm 30.3 WNW 16 20 1002.8 - 0.0 - - 10 - - - -
20/12:30pm 31.1 WNW 16 20 1003.1 - 0.0 - - 10 - - - -
20/12:00pm 30.6 WNW 16 21 1003.3 - 0.0 - Mostly clear 10 - - - -
20/11:30am 31.3 WNW 15 19 1003.5 - 0.0 - - 10 - - - -
20/11:00am 30.7 W 18 21 1003.5 - 0.0 - - 10 - - - -
20/10:30am 29.8 W 17 20 1003.9 - 0.0 - - 10 - - - -
20/10:00am 29.7 W 17 20 1004.1 - 0.0 - - 10 - - - -
20/09:30am 29.2 W 18 21 1004.0 - 0.0 - - 10 - - - -
20/09:00am 28.9 W 15 19 1004.0 - 0.0 - - 10 - - - -
20/08:30am 28.2 WSW 16 19 1004.0 - 0.0 - - 10 - - - -
20/08:00am 27.5 WSW 15 18 1003.9 - 0.0 - - 10 - - - -
20/07:30am 26.9 WSW 13 16 1004.0 - 0.0 - - 10 - - - -
20/07:00am 26.6 WSW 12 15 1003.8 - 0.0 - - 10 - - - -
20/06:30am 26.2 WSW 11 16 1003.7 - 0.0 - - 10 - - - -

Other Formats:

Comma delimited format used in spreadsheet applications
http://www.bom.gov.au/fwo/IDW60701/IDW60701.95307.axf

JavaScript Object Notation format (JSON) in row-major order
http://www.bom.gov.au/fwo/IDW60701/IDW60701.95307.json